EDDM/MUC METAR and TAF weather

Enter ICAO airport designator
Station Type Date Time Source
EDDM METAR 2020/01/28 04:50 UTC NOAA

EDDM 280450Z 19010KT 9999 SCT036 BKN048 04/02 Q1003 NOSIG


Station Type Date Time Source
EDDM Decoded METAR 2020/01/28 04:50 UTC NOAA

Munchen, Germany (EDDM) 48-21N 011-47E
Jan 27, 2020 - 11:50 PM EST / 2020.01.28 0450 UTC
Wind: from the S (190 degrees) at 12 MPH (10 KT):0
Visibility: greater than 7 mile(s):0
Sky conditions: mostly cloudy
Temperature: 39 F (4 C)
Dew Point: 35 F (2 C)
Relative Humidity: 86%
Pressure (altimeter): 29.62 in. Hg (1003 hPa)
ob: EDDM 280450Z 19010KT 9999 SCT036 BKN048 04/02 Q1003 NOSIG
cycle: 5

Station Type Date Time Source
EDDM TAF 2020/01/27 18:36 UTC NOAA

TAF TAF EDDM 271700Z 2718/2824 13005KT 9999 BKN045
BECMG 2723/2801 25004KT PROB30
TEMPO 2723/2806 4000 RADZ
BECMG 2806/2808 26012KT
BECMG 2808/2810 26015G30KT
TEMPO 2810/2818 27020G45KT 3500 SHRA BKN025CB PROB30
TEMPO 2813/2817 2500 TSRA BKN020CB
BECMG 2818/2821 25010KT
TEMPO 2818/2824 27020G30KT 3500 SHSNRA BKN020CB

Example: see airport list